sensor_id;sensor_type;location;lat;lon;timestamp;pressure;altitude;pressure_sealevel;temperature;humidity
37068;BME280;22982;42.848;25.468;2023-01-28T00:01:37;95655.50;;;-0.19;100.00
37068;BME280;22982;42.848;25.468;2023-01-28T00:06:39;95664.84;;;-0.16;100.00
37068;BME280;22982;42.848;25.468;2023-01-28T00:11:41;95668.97;;;-0.41;100.00
37068;BME280;22982;42.848;25.468;2023-01-28T00:16:44;95672.81;;;-0.24;100.00
37068;BME280;22982;42.848;25.468;2023-01-28T00:21:47;95675.22;;;-0.18;100.00
37068;BME280;22982;42.848;25.468;2023-01-28T00:26:49;95673.13;;;-0.36;100.00
37068;BME280;22982;42.848;25.468;2023-01-28T00:31:52;95674.97;;;-0.42;100.00
37068;BME280;22982;42.848;25.468;2023-01-28T00:36:54;95665.81;;;-0.50;100.00
37068;BME280;22982;42.848;25.468;2023-01-28T00:41:59;95690.16;;;-0.64;100.00
37068;BME280;22982;42.848;25.468;2023-01-28T00:47:01;95673.22;;;-0.72;100.00
37068;BME280;22982;42.848;25.468;2023-01-28T00:52:03;95683.66;;;-0.77;100.00
37068;BME280;22982;42.848;25.468;2023-01-28T00:57:05;95689.22;;;-0.60;100.00
37068;BME280;22982;42.848;25.468;2023-01-28T01:02:08;95707.00;;;-0.50;100.00
37068;BME280;22982;42.848;25.468;2023-01-28T01:07:14;95698.94;;;-0.71;100.00
37068;BME280;22982;42.848;25.468;2023-01-28T01:12:16;95685.47;;;-0.48;100.00
37068;BME280;22982;42.848;25.468;2023-01-28T01:17:19;95695.38;;;-0.32;100.00
37068;BME280;22982;42.848;25.468;2023-01-28T01:22:22;95677.16;;;-0.26;100.00
37068;BME280;22982;42.848;25.468;2023-01-28T01:27:25;95696.75;;;-0.21;100.00
37068;BME280;22982;42.848;25.468;2023-01-28T01:32:31;95691.56;;;-0.50;100.00
37068;BME280;22982;42.848;25.468;2023-01-28T01:37:36;95714.03;;;-0.24;100.00
37068;BME280;22982;42.848;25.468;2023-01-28T01:42:38;95704.09;;;-0.38;100.00
37068;BME280;22982;42.848;25.468;2023-01-28T01:47:51;95712.06;;;-0.14;100.00
37068;BME280;22982;42.848;25.468;2023-01-28T01:53:00;95698.31;;;-0.15;100.00
37068;BME280;22982;42.848;25.468;2023-01-28T01:58:07;95710.16;;;-0.08;100.00
37068;BME280;22982;42.848;25.468;2023-01-28T02:03:13;95711.41;;;-0.23;100.00
37068;BME280;22982;42.848;25.468;2023-01-28T02:08:18;95704.66;;;-0.27;100.00
37068;BME280;22982;42.848;25.468;2023-01-28T02:13:29;95700.03;;;-0.14;100.00
37068;BME280;22982;42.848;25.468;2023-01-28T02:18:34;95697.31;;;-0.09;100.00
37068;BME280;22982;42.848;25.468;2023-01-28T02:23:49;95711.31;;;-0.18;100.00
37068;BME280;22982;42.848;25.468;2023-01-28T02:34:47;95712.25;;;-0.22;100.00
37068;BME280;22982;42.848;25.468;2023-01-28T02:39:54;95733.56;;;-0.15;100.00
37068;BME280;22982;42.848;25.468;2023-01-28T02:44:59;95718.56;;;-0.32;100.00
37068;BME280;22982;42.848;25.468;2023-01-28T02:50:07;95715.03;;;-0.30;100.00
37068;BME280;22982;42.848;25.468;2023-01-28T02:55:21;95738.47;;;-0.06;100.00
37068;BME280;22982;42.848;25.468;2023-01-28T03:00:42;95730.16;;;-0.16;100.00
37068;BME280;22982;42.848;25.468;2023-01-28T03:05:58;95734.72;;;-0.27;100.00
37068;BME280;22982;42.848;25.468;2023-01-28T03:11:06;95730.44;;;-0.27;100.00
37068;BME280;22982;42.848;25.468;2023-01-28T03:16:28;95716.81;;;-0.32;100.00
37068;BME280;22982;42.848;25.468;2023-01-28T03:21:51;95715.78;;;-0.25;100.00
37068;BME280;22982;42.848;25.468;2023-01-28T03:27:21;95743.53;;;-0.03;100.00
37068;BME280;22982;42.848;25.468;2023-01-28T03:32:46;95744.66;;;-0.13;100.00
37068;BME280;22982;42.848;25.468;2023-01-28T03:38:08;95738.72;;;-0.15;100.00
37068;BME280;22982;42.848;25.468;2023-01-28T03:43:22;95749.19;;;-0.22;100.00
37068;BME280;22982;42.848;25.468;2023-01-28T03:48:26;95741.84;;;-0.37;100.00
37068;BME280;22982;42.848;25.468;2023-01-28T03:53:29;95753.03;;;-0.38;100.00
37068;BME280;22982;42.848;25.468;2023-01-28T03:58:32;95770.59;;;-0.52;100.00
37068;BME280;22982;42.848;25.468;2023-01-28T04:03:53;95758.84;;;-0.64;100.00
37068;BME280;22982;42.848;25.468;2023-01-28T04:08:59;95774.09;;;-0.56;100.00
37068;BME280;22982;42.848;25.468;2023-01-28T04:14:02;95779.25;;;-0.56;100.00
37068;BME280;22982;42.848;25.468;2023-01-28T04:19:22;95785.25;;;-0.56;100.00
37068;BME280;22982;42.848;25.468;2023-01-28T04:24:25;95780.19;;;-0.59;100.00
37068;BME280;22982;42.848;25.468;2023-01-28T04:29:27;95796.47;;;-0.59;100.00
37068;BME280;22982;42.848;25.468;2023-01-28T04:34:35;95789.72;;;-0.63;100.00
37068;BME280;22982;42.848;25.468;2023-01-28T04:40:00;95809.38;;;-0.60;100.00
37068;BME280;22982;42.848;25.468;2023-01-28T04:45:35;95815.41;;;-0.60;100.00
37068;BME280;22982;42.848;25.468;2023-01-28T04:50:56;95816.25;;;-0.61;100.00
37068;BME280;22982;42.848;25.468;2023-01-28T04:56:18;95810.66;;;-0.78;100.00
37068;BME280;22982;42.848;25.468;2023-01-28T05:01:20;95820.94;;;-0.78;100.00
37068;BME280;22982;42.848;25.468;2023-01-28T05:06:23;95831.88;;;-0.67;100.00
37068;BME280;22982;42.848;25.468;2023-01-28T05:11:29;95832.75;;;-0.69;100.00
37068;BME280;22982;42.848;25.468;2023-01-28T05:16:34;95832.88;;;-0.74;100.00
37068;BME280;22982;42.848;25.468;2023-01-28T05:21:38;95839.59;;;-0.67;100.00
37068;BME280;22982;42.848;25.468;2023-01-28T05:26:47;95864.00;;;-0.47;100.00
37068;BME280;22982;42.848;25.468;2023-01-28T05:31:50;95855.41;;;-0.46;100.00
37068;BME280;22982;42.848;25.468;2023-01-28T05:36:53;95841.78;;;-0.51;100.00
37068;BME280;22982;42.848;25.468;2023-01-28T05:42:14;95842.81;;;-0.59;100.00
37068;BME280;22982;42.848;25.468;2023-01-28T05:47:20;95862.97;;;-0.40;100.00
37068;BME280;22982;42.848;25.468;2023-01-28T05:52:26;95853.56;;;-0.41;100.00
37068;BME280;22982;42.848;25.468;2023-01-28T05:57:30;95864.00;;;-0.47;100.00
37068;BME280;22982;42.848;25.468;2023-01-28T06:02:32;95880.25;;;-0.45;100.00
37068;BME280;22982;42.848;25.468;2023-01-28T06:07:35;95887.41;;;-0.56;100.00
37068;BME280;22982;42.848;25.468;2023-01-28T06:12:38;95903.00;;;-0.63;100.00
37068;BME280;22982;42.848;25.468;2023-01-28T06:18:13;95894.31;;;-0.59;100.00
37068;BME280;22982;42.848;25.468;2023-01-28T06:23:15;95897.69;;;-0.56;100.00
37068;BME280;22982;42.848;25.468;2023-01-28T06:28:18;95911.59;;;-0.64;100.00
37068;BME280;22982;42.848;25.468;2023-01-28T06:33:21;95936.88;;;-0.42;100.00
37068;BME280;22982;42.848;25.468;2023-01-28T06:38:25;95937.56;;;-0.34;100.00
37068;BME280;22982;42.848;25.468;2023-01-28T06:43:27;95924.59;;;-0.31;100.00
37068;BME280;22982;42.848;25.468;2023-01-28T06:48:31;95933.34;;;-0.38;100.00
37068;BME280;22982;42.848;25.468;2023-01-28T06:53:33;95937.53;;;-0.32;100.00
37068;BME280;22982;42.848;25.468;2023-01-28T06:58:36;95933.50;;;-0.07;100.00
37068;BME280;22982;42.848;25.468;2023-01-28T07:03:38;95938.28;;;0.07;100.00
37068;BME280;22982;42.848;25.468;2023-01-28T07:08:40;95949.22;;;0.18;100.00
37068;BME280;22982;42.848;25.468;2023-01-28T07:13:43;95942.78;;;0.35;100.00
37068;BME280;22982;42.848;25.468;2023-01-28T07:18:45;95943.31;;;0.48;100.00
37068;BME280;22982;42.848;25.468;2023-01-28T07:23:48;95957.22;;;0.42;100.00
37068;BME280;22982;42.848;25.468;2023-01-28T07:28:50;95955.88;;;0.62;100.00
37068;BME280;22982;42.848;25.468;2023-01-28T07:33:52;95969.25;;;0.76;100.00
37068;BME280;22982;42.848;25.468;2023-01-28T07:38:55;95970.84;;;0.80;100.00
37068;BME280;22982;42.848;25.468;2023-01-28T07:43:57;95971.06;;;1.04;100.00
37068;BME280;22982;42.848;25.468;2023-01-28T07:48:59;95957.06;;;1.12;100.00
37068;BME280;22982;42.848;25.468;2023-01-28T07:54:02;95974.81;;;1.25;100.00
37068;BME280;22982;42.848;25.468;2023-01-28T07:59:04;95969.94;;;1.14;100.00
37068;BME280;22982;42.848;25.468;2023-01-28T08:04:06;95982.31;;;1.01;100.00
37068;BME280;22982;42.848;25.468;2023-01-28T08:09:09;95976.38;;;0.98;100.00
37068;BME280;22982;42.848;25.468;2023-01-28T08:14:11;95968.75;;;0.94;100.00
37068;BME280;22982;42.848;25.468;2023-01-28T08:19:14;95981.13;;;0.82;100.00
37068;BME280;22982;42.848;25.468;2023-01-28T08:24:17;96000.63;;;0.92;100.00
37068;BME280;22982;42.848;25.468;2023-01-28T08:29:19;95997.16;;;0.94;100.00
37068;BME280;22982;42.848;25.468;2023-01-28T08:34:21;95988.72;;;0.88;100.00
37068;BME280;22982;42.848;25.468;2023-01-28T08:39:23;95992.97;;;0.90;100.00
37068;BME280;22982;42.848;25.468;2023-01-28T08:44:26;96005.63;;;1.31;100.00
37068;BME280;22982;42.848;25.468;2023-01-28T08:49:28;95999.88;;;1.21;100.00
37068;BME280;22982;42.848;25.468;2023-01-28T08:54:31;96007.44;;;1.27;100.00
37068;BME280;22982;42.848;25.468;2023-01-28T08:59:34;96001.09;;;1.39;100.00
37068;BME280;22982;42.848;25.468;2023-01-28T09:04:36;96001.84;;;1.72;100.00
37068;BME280;22982;42.848;25.468;2023-01-28T09:09:38;95987.97;;;1.45;99.94
37068;BME280;22982;42.848;25.468;2023-01-28T09:14:41;95991.41;;;1.76;99.82
37068;BME280;22982;42.848;25.468;2023-01-28T09:19:43;95990.22;;;2.14;99.10
37068;BME280;22982;42.848;25.468;2023-01-28T09:24:45;95979.66;;;2.47;96.09
37068;BME280;22982;42.848;25.468;2023-01-28T09:29:47;95985.38;;;2.32;95.62
37068;BME280;22982;42.848;25.468;2023-01-28T09:34:50;95982.69;;;2.60;95.86
37068;BME280;22982;42.848;25.468;2023-01-28T09:39:52;95985.03;;;2.67;94.80
37068;BME280;22982;42.848;25.468;2023-01-28T09:45:04;95985.84;;;2.95;94.27
37068;BME280;22982;42.848;25.468;2023-01-28T09:50:29;95967.16;;;3.34;92.92
37068;BME280;22982;42.848;25.468;2023-01-28T09:55:38;95961.25;;;3.30;91.73
37068;BME280;22982;42.848;25.468;2023-01-28T10:11:47;95978.75;;;4.16;87.66
37068;BME280;22982;42.848;25.468;2023-01-28T10:17:02;95961.84;;;4.28;85.83
37068;BME280;22982;42.848;25.468;2023-01-28T10:22:41;95978.28;;;4.07;86.26
37068;BME280;22982;42.848;25.468;2023-01-28T10:27:47;95936.63;;;3.88;88.52
37068;BME280;22982;42.848;25.468;2023-01-28T10:33:02;95960.03;;;3.86;88.80
37068;BME280;22982;42.848;25.468;2023-01-28T10:38:07;95981.38;;;4.15;89.70
37068;BME280;22982;42.848;25.468;2023-01-28T10:43:10;95955.81;;;4.06;88.09
37068;BME280;22982;42.848;25.468;2023-01-28T10:48:19;95981.59;;;4.53;88.72
37068;BME280;22982;42.848;25.468;2023-01-28T10:53:42;95986.03;;;4.71;86.82
37068;BME280;22982;42.848;25.468;2023-01-28T10:59:17;95984.63;;;4.42;88.33
37068;BME280;22982;42.848;25.468;2023-01-28T11:09:34;95968.53;;;3.90;90.23
37068;BME280;22982;42.848;25.468;2023-01-28T11:14:36;95978.44;;;3.80;90.76
37068;BME280;22982;42.848;25.468;2023-01-28T11:19:39;95965.69;;;3.74;90.43
37068;BME280;22982;42.848;25.468;2023-01-28T11:24:41;95973.59;;;3.93;89.59
37068;BME280;22982;42.848;25.468;2023-01-28T11:29:44;95981.09;;;4.00;89.40
37068;BME280;22982;42.848;25.468;2023-01-28T11:34:55;95970.75;;;3.77;89.75
37068;BME280;22982;42.848;25.468;2023-01-28T11:45:34;95986.03;;;3.14;95.23
37068;BME280;22982;42.848;25.468;2023-01-28T11:50:53;95984.16;;;3.17;95.51
37068;BME280;22982;42.848;25.468;2023-01-28T11:56:10;95981.03;;;2.32;97.43
37068;BME280;22982;42.848;25.468;2023-01-28T12:01:27;95995.63;;;2.60;97.98
37068;BME280;22982;42.848;25.468;2023-01-28T12:06:45;95992.13;;;2.62;98.04
37068;BME280;22982;42.848;25.468;2023-01-28T12:44:50;95994.41;;;2.72;97.21
37068;BME280;22982;42.848;25.468;2023-01-28T12:50:02;95997.38;;;2.33;98.80
37068;BME280;22982;42.848;25.468;2023-01-28T13:05:37;96010.50;;;2.28;100.00
37068;BME280;22982;42.848;25.468;2023-01-28T13:10:43;96015.53;;;2.31;99.80
37068;BME280;22982;42.848;25.468;2023-01-28T13:15:46;96029.09;;;2.39;100.00
37068;BME280;22982;42.848;25.468;2023-01-28T13:20:51;96008.84;;;2.52;99.07
37068;BME280;22982;42.848;25.468;2023-01-28T13:26:09;96033.97;;;2.48;97.15
37068;BME280;22982;42.848;25.468;2023-01-28T13:31:14;96041.53;;;2.28;97.55
37068;BME280;22982;42.848;25.468;2023-01-28T13:36:29;96042.47;;;1.97;99.20
37068;BME280;22982;42.848;25.468;2023-01-28T13:41:46;96051.66;;;2.06;98.85
37068;BME280;22982;42.848;25.468;2023-01-28T13:46:48;96051.94;;;1.97;100.00
37068;BME280;22982;42.848;25.468;2023-01-28T13:52:23;96056.63;;;1.84;100.00
37068;BME280;22982;42.848;25.468;2023-01-28T14:08:39;96070.47;;;1.83;100.00
37068;BME280;22982;42.848;25.468;2023-01-28T14:19:12;96058.75;;;1.71;100.00
37068;BME280;22982;42.848;25.468;2023-01-28T14:24:16;96070.63;;;1.77;100.00
37068;BME280;22982;42.848;25.468;2023-01-28T14:34:45;96078.97;;;1.57;100.00
37068;BME280;22982;42.848;25.468;2023-01-28T14:39:53;96069.56;;;1.54;100.00
37068;BME280;22982;42.848;25.468;2023-01-28T14:45:13;96075.38;;;1.61;100.00
37068;BME280;22982;42.848;25.468;2023-01-28T14:50:43;96080.56;;;1.61;100.00
37068;BME280;22982;42.848;25.468;2023-01-28T15:01:01;96081.94;;;1.43;100.00
37068;BME280;22982;42.848;25.468;2023-01-28T15:06:14;96065.75;;;1.36;100.00
37068;BME280;22982;42.848;25.468;2023-01-28T15:11:21;96090.88;;;1.29;100.00
37068;BME280;22982;42.848;25.468;2023-01-28T15:16:26;96091.53;;;1.05;100.00
37068;BME280;22982;42.848;25.468;2023-01-28T15:21:36;96097.53;;;1.07;100.00
37068;BME280;22982;42.848;25.468;2023-01-28T15:26:45;96092.91;;;1.18;100.00
37068;BME280;22982;42.848;25.468;2023-01-28T15:31:47;96114.06;;;1.32;100.00
37068;BME280;22982;42.848;25.468;2023-01-28T15:36:50;96096.31;;;1.20;100.00
37068;BME280;22982;42.848;25.468;2023-01-28T15:42:02;96110.41;;;1.41;100.00
37068;BME280;22982;42.848;25.468;2023-01-28T15:47:19;96123.50;;;1.33;100.00
37068;BME280;22982;42.848;25.468;2023-01-28T15:52:37;96123.50;;;1.33;100.00
37068;BME280;22982;42.848;25.468;2023-01-28T15:57:40;96137.44;;;1.26;100.00
37068;BME280;22982;42.848;25.468;2023-01-28T16:02:51;96144.75;;;1.45;100.00
37068;BME280;22982;42.848;25.468;2023-01-28T16:07:54;96154.66;;;1.27;100.00
37068;BME280;22982;42.848;25.468;2023-01-28T16:13:19;96159.16;;;1.19;100.00
37068;BME280;22982;42.848;25.468;2023-01-28T16:18:30;96153.19;;;1.17;100.00
37068;BME280;22982;42.848;25.468;2023-01-28T16:23:38;96161.63;;;1.24;100.00
37068;BME280;22982;42.848;25.468;2023-01-28T16:28:41;96157.44;;;1.20;100.00
37068;BME280;22982;42.848;25.468;2023-01-28T16:33:43;96149.72;;;1.18;100.00
37068;BME280;22982;42.848;25.468;2023-01-28T16:38:46;96151.31;;;1.24;100.00
37068;BME280;22982;42.848;25.468;2023-01-28T16:43:48;96143.16;;;1.05;100.00
37068;BME280;22982;42.848;25.468;2023-01-28T16:48:50;96154.25;;;1.08;100.00
37068;BME280;22982;42.848;25.468;2023-01-28T16:53:53;96179.00;;;1.17;100.00
37068;BME280;22982;42.848;25.468;2023-01-28T16:58:56;96179.97;;;1.14;100.00
37068;BME280;22982;42.848;25.468;2023-01-28T17:03:58;96169.81;;;1.07;100.00
37068;BME280;22982;42.848;25.468;2023-01-28T17:09:01;96192.66;;;1.22;100.00
37068;BME280;22982;42.848;25.468;2023-01-28T17:14:03;96197.09;;;1.17;100.00
37068;BME280;22982;42.848;25.468;2023-01-28T17:19:05;96195.66;;;1.07;100.00
37068;BME280;22982;42.848;25.468;2023-01-28T17:24:07;96169.47;;;0.85;100.00
37068;BME280;22982;42.848;25.468;2023-01-28T17:29:10;96200.97;;;0.99;100.00
37068;BME280;22982;42.848;25.468;2023-01-28T17:34:12;96191.28;;;1.09;100.00
37068;BME280;22982;42.848;25.468;2023-01-28T17:39:14;96202.94;;;1.25;100.00
37068;BME280;22982;42.848;25.468;2023-01-28T17:44:18;96198.34;;;1.01;100.00
37068;BME280;22982;42.848;25.468;2023-01-28T17:49:20;96206.59;;;1.17;100.00
37068;BME280;22982;42.848;25.468;2023-01-28T17:54:23;96191.34;;;1.06;100.00
37068;BME280;22982;42.848;25.468;2023-01-28T17:59:26;96220.25;;;1.22;100.00
37068;BME280;22982;42.848;25.468;2023-01-28T18:04:28;96203.28;;;1.10;100.00
37068;BME280;22982;42.848;25.468;2023-01-28T18:09:31;96219.78;;;1.04;100.00
37068;BME280;22982;42.848;25.468;2023-01-28T18:14:33;96208.47;;;1.10;100.00
37068;BME280;22982;42.848;25.468;2023-01-28T18:19:36;96213.63;;;1.10;100.00
37068;BME280;22982;42.848;25.468;2023-01-28T18:24:38;96217.78;;;1.15;100.00
37068;BME280;22982;42.848;25.468;2023-01-28T18:29:40;96219.78;;;1.04;100.00
37068;BME280;22982;42.848;25.468;2023-01-28T18:34:42;96221.97;;;1.21;100.00
37068;BME280;22982;42.848;25.468;2023-01-28T18:39:48;96214.41;;;1.13;100.00
37068;BME280;22982;42.848;25.468;2023-01-28T18:44:50;96214.41;;;1.13;100.00
37068;BME280;22982;42.848;25.468;2023-01-28T18:49:52;96233.38;;;1.12;100.00
37068;BME280;22982;42.848;25.468;2023-01-28T18:54:55;96215.78;;;0.92;100.00
37068;BME280;22982;42.848;25.468;2023-01-28T18:59:58;96224.53;;;0.85;100.00
37068;BME280;22982;42.848;25.468;2023-01-28T19:05:01;96237.53;;;0.81;100.00
37068;BME280;22982;42.848;25.468;2023-01-28T19:10:03;96242.38;;;0.96;100.00
37068;BME280;22982;42.848;25.468;2023-01-28T19:15:07;96240.50;;;1.01;100.00
37068;BME280;22982;42.848;25.468;2023-01-28T19:20:10;96246.09;;;0.83;100.00
37068;BME280;22982;42.848;25.468;2023-01-28T19:25:12;96230.38;;;0.54;100.00
37068;BME280;22982;42.848;25.468;2023-01-28T19:30:15;96257.59;;;0.68;100.00
37068;BME280;22982;42.848;25.468;2023-01-28T19:35:19;96235.19;;;0.70;100.00
37068;BME280;22982;42.848;25.468;2023-01-28T19:40:21;96239.00;;;0.53;100.00
37068;BME280;22982;42.848;25.468;2023-01-28T19:45:25;96249.94;;;0.63;100.00
37068;BME280;22982;42.848;25.468;2023-01-28T19:50:27;96254.00;;;0.75;100.00
37068;BME280;22982;42.848;25.468;2023-01-28T19:55:29;96259.00;;;0.83;100.00
37068;BME280;22982;42.848;25.468;2023-01-28T20:00:33;96266.47;;;0.95;100.00
37068;BME280;22982;42.848;25.468;2023-01-28T20:05:35;96280.44;;;0.86;100.00
37068;BME280;22982;42.848;25.468;2023-01-28T20:10:38;96269.34;;;0.81;100.00
37068;BME280;22982;42.848;25.468;2023-01-28T20:15:40;96275.25;;;0.86;100.00
37068;BME280;22982;42.848;25.468;2023-01-28T20:20:53;96279.56;;;0.87;100.00
37068;BME280;22982;42.848;25.468;2023-01-28T20:25:56;96271.13;;;0.79;100.00
37068;BME280;22982;42.848;25.468;2023-01-28T20:31:06;96292.88;;;0.69;100.00
37068;BME280;22982;42.848;25.468;2023-01-28T20:36:12;96290.41;;;0.63;100.00
37068;BME280;22982;42.848;25.468;2023-01-28T20:41:17;96289.19;;;0.79;100.00
37068;BME280;22982;42.848;25.468;2023-01-28T20:46:24;96292.41;;;0.90;100.00
37068;BME280;22982;42.848;25.468;2023-01-28T20:51:29;96308.50;;;1.02;100.00
37068;BME280;22982;42.848;25.468;2023-01-28T20:56:31;96296.59;;;0.96;100.00
37068;BME280;22982;42.848;25.468;2023-01-28T21:01:35;96310.06;;;1.09;100.00
37068;BME280;22982;42.848;25.468;2023-01-28T21:06:38;96317.81;;;1.09;100.00
37068;BME280;22982;42.848;25.468;2023-01-28T21:11:43;96316.25;;;1.02;100.00
37068;BME280;22982;42.848;25.468;2023-01-28T21:16:45;96326.47;;;1.06;100.00
37068;BME280;22982;42.848;25.468;2023-01-28T21:21:48;96303.81;;;0.80;100.00
37068;BME280;22982;42.848;25.468;2023-01-28T21:26:50;96334.19;;;1.08;100.00
37068;BME280;22982;42.848;25.468;2023-01-28T21:31:52;96316.44;;;0.94;100.00
37068;BME280;22982;42.848;25.468;2023-01-28T21:36:54;96314.31;;;0.71;100.00
37068;BME280;22982;42.848;25.468;2023-01-28T21:41:57;96333.16;;;0.76;100.00
37068;BME280;22982;42.848;25.468;2023-01-28T21:46:59;96315.25;;;0.67;100.00
37068;BME280;22982;42.848;25.468;2023-01-28T21:52:01;96315.97;;;0.73;100.00
37068;BME280;22982;42.848;25.468;2023-01-28T21:57:03;96332.63;;;0.60;100.00
37068;BME280;22982;42.848;25.468;2023-01-28T22:02:10;96330.13;;;0.54;100.00
37068;BME280;22982;42.848;25.468;2023-01-28T22:07:13;96333.16;;;0.76;100.00
37068;BME280;22982;42.848;25.468;2023-01-28T22:12:18;96329.81;;;0.71;100.00
37068;BME280;22982;42.848;25.468;2023-01-28T22:17:22;96331.97;;;0.91;100.00
37068;BME280;22982;42.848;25.468;2023-01-28T22:22:24;96331.72;;;0.61;100.00
37068;BME280;22982;42.848;25.468;2023-01-28T22:27:27;96310.41;;;0.51;100.00
37068;BME280;22982;42.848;25.468;2023-01-28T22:32:29;96284.66;;;0.50;100.00
37068;BME280;22982;42.848;25.468;2023-01-28T22:37:31;96313.38;;;0.75;100.00
37068;BME280;22982;42.848;25.468;2023-01-28T22:42:33;96310.66;;;0.81;100.00
37068;BME280;22982;42.848;25.468;2023-01-28T22:47:36;96318.22;;;0.90;100.00
37068;BME280;22982;42.848;25.468;2023-01-28T22:52:38;96327.13;;;0.75;100.00
37068;BME280;22982;42.848;25.468;2023-01-28T22:57:40;96307.84;;;0.51;100.00
37068;BME280;22982;42.848;25.468;2023-01-28T23:02:42;96309.84;;;0.37;100.00
37068;BME280;22982;42.848;25.468;2023-01-28T23:07:45;96330.16;;;0.52;100.00
37068;BME280;22982;42.848;25.468;2023-01-28T23:12:53;96313.00;;;0.51;100.00
37068;BME280;22982;42.848;25.468;2023-01-28T23:18:19;96327.38;;;0.63;100.00
37068;BME280;22982;42.848;25.468;2023-01-28T23:23:50;96331.47;;;0.30;100.00
37068;BME280;22982;42.848;25.468;2023-01-28T23:29:11;96315.19;;;0.28;100.00
37068;BME280;22982;42.848;25.468;2023-01-28T23:34:15;96336.41;;;0.42;100.00
37068;BME280;22982;42.848;25.468;2023-01-28T23:39:18;96321.09;;;0.34;100.00
37068;BME280;22982;42.848;25.468;2023-01-28T23:44:27;96323.69;;;0.33;100.00
37068;BME280;22982;42.848;25.468;2023-01-28T23:49:29;96318.75;;;0.21;100.00
37068;BME280;22982;42.848;25.468;2023-01-28T23:54:31;96310.38;;;0.09;100.00
37068;BME280;22982;42.848;25.468;2023-01-28T23:59:34;96328.94;;;0.27;100.00
